Village, Virginia
Current Conditions -  °F | °C
As of 4:53 PM on Wednesday 22 Oct 2014 (Local Time) from KNUI Reporting Station
Light Rain Light Rain  
Wind Chill: 55°   Ceiling: 1500
Heat Index: 55°   Visibility: 10mi
Dew Point: 49°   Wind: 10mph
Humidity: 80%   Direction: 320°NW
Pressure: 29.85"   Gusts: 20mph
Location:  37.95°N, 76.6°W
Report Text: KNUI 222053Z AUTO 32009G17KT 10SM -RA BKN015 OVC022 13/09 A2985 RMK AO2 RAE45B52 SLP106 P0001 60007 T01280094 51004
Loading
Personal Weather Stations






























Interactive Weather Map
Tropical Storm Tracking
New forecast layout! Learn more

10-Day Weather Forecast

Advertisements
Track Severe Weather on mobile